sensor_id;sensor_type;location;lat;lon;timestamp;P1;durP1;ratioP1;P2;durP2;ratioP2
23185;SDS011;11761;51.324;4.590;2022-12-18T00:02:02;41.17;;;16.08;;
23185;SDS011;11761;51.324;4.590;2022-12-18T00:04:29;46.97;;;16.85;;
23185;SDS011;11761;51.324;4.590;2022-12-18T00:06:55;40.83;;;14.05;;
23185;SDS011;11761;51.324;4.590;2022-12-18T00:09:21;52.17;;;16.77;;
23185;SDS011;11761;51.324;4.590;2022-12-18T00:11:48;46.85;;;18.23;;
23185;SDS011;11761;51.324;4.590;2022-12-18T00:14:14;46.70;;;17.35;;
23185;SDS011;11761;51.324;4.590;2022-12-18T00:16:42;62.33;;;17.83;;
23185;SDS011;11761;51.324;4.590;2022-12-18T00:19:10;46.92;;;17.15;;
23185;SDS011;11761;51.324;4.590;2022-12-18T00:21:40;40.03;;;16.33;;
23185;SDS011;11761;51.324;4.590;2022-12-18T00:24:07;37.92;;;15.60;;
23185;SDS011;11761;51.324;4.590;2022-12-18T00:26:34;42.15;;;16.17;;
23185;SDS011;11761;51.324;4.590;2022-12-18T00:29:02;38.65;;;15.57;;
23185;SDS011;11761;51.324;4.590;2022-12-18T00:31:34;48.92;;;16.63;;
23185;SDS011;11761;51.324;4.590;2022-12-18T00:34:01;41.22;;;16.73;;
23185;SDS011;11761;51.324;4.590;2022-12-18T00:36:28;45.40;;;16.30;;
23185;SDS011;11761;51.324;4.590;2022-12-18T00:38:57;50.92;;;17.00;;
23185;SDS011;11761;51.324;4.590;2022-12-18T00:41:24;42.10;;;15.63;;
23185;SDS011;11761;51.324;4.590;2022-12-18T00:44:10;40.63;;;14.13;;
23185;SDS011;11761;51.324;4.590;2022-12-18T00:46:38;37.63;;;13.63;;
23185;SDS011;11761;51.324;4.590;2022-12-18T00:49:04;40.17;;;15.30;;
23185;SDS011;11761;51.324;4.590;2022-12-18T00:51:31;39.83;;;14.27;;
23185;SDS011;11761;51.324;4.590;2022-12-18T00:53:57;46.20;;;15.63;;
23185;SDS011;11761;51.324;4.590;2022-12-18T00:56:24;40.83;;;15.18;;
23185;SDS011;11761;51.324;4.590;2022-12-18T00:58:50;40.85;;;16.02;;
23185;SDS011;11761;51.324;4.590;2022-12-18T01:01:16;44.45;;;14.05;;
23185;SDS011;11761;51.324;4.590;2022-12-18T01:03:43;38.85;;;14.13;;
23185;SDS011;11761;51.324;4.590;2022-12-18T01:06:11;37.13;;;14.55;;
23185;SDS011;11761;51.324;4.590;2022-12-18T01:08:38;47.63;;;16.58;;
23185;SDS011;11761;51.324;4.590;2022-12-18T01:11:08;47.47;;;17.70;;
23185;SDS011;11761;51.324;4.590;2022-12-18T01:13:36;45.88;;;16.73;;
23185;SDS011;11761;51.324;4.590;2022-12-18T01:16:03;36.00;;;16.38;;
23185;SDS011;11761;51.324;4.590;2022-12-18T01:18:29;43.17;;;17.17;;
23185;SDS011;11761;51.324;4.590;2022-12-18T01:20:55;45.45;;;16.83;;
23185;SDS011;11761;51.324;4.590;2022-12-18T01:23:21;45.35;;;15.13;;
23185;SDS011;11761;51.324;4.590;2022-12-18T01:25:48;45.38;;;17.77;;
23185;SDS011;11761;51.324;4.590;2022-12-18T01:28:14;41.83;;;16.85;;
23185;SDS011;11761;51.324;4.590;2022-12-18T01:30:40;40.30;;;17.13;;
23185;SDS011;11761;51.324;4.590;2022-12-18T01:33:06;41.65;;;13.45;;
23185;SDS011;11761;51.324;4.590;2022-12-18T01:35:32;41.88;;;15.38;;
23185;SDS011;11761;51.324;4.590;2022-12-18T01:37:58;36.13;;;14.15;;
23185;SDS011;11761;51.324;4.590;2022-12-18T01:40:24;39.92;;;15.15;;
23185;SDS011;11761;51.324;4.590;2022-12-18T01:42:53;37.80;;;14.40;;
23185;SDS011;11761;51.324;4.590;2022-12-18T01:45:30;38.88;;;14.80;;
23185;SDS011;11761;51.324;4.590;2022-12-18T01:47:58;43.00;;;14.88;;
23185;SDS011;11761;51.324;4.590;2022-12-18T01:50:28;39.30;;;14.32;;
23185;SDS011;11761;51.324;4.590;2022-12-18T01:55:38;38.13;;;13.35;;
23185;SDS011;11761;51.324;4.590;2022-12-18T01:58:08;40.25;;;14.13;;
23185;SDS011;11761;51.324;4.590;2022-12-18T02:00:34;34.97;;;12.20;;
23185;SDS011;11761;51.324;4.590;2022-12-18T02:03:00;35.80;;;13.32;;
23185;SDS011;11761;51.324;4.590;2022-12-18T02:08:22;26.17;;;12.35;;
23185;SDS011;11761;51.324;4.590;2022-12-18T02:16:34;31.45;;;11.10;;
23185;SDS011;11761;51.324;4.590;2022-12-18T02:19:37;29.67;;;11.23;;
23185;SDS011;11761;51.324;4.590;2022-12-18T02:22:27;28.83;;;12.52;;
23185;SDS011;11761;51.324;4.590;2022-12-18T02:28:06;20.33;;;10.40;;
23185;SDS011;11761;51.324;4.590;2022-12-18T02:30:37;38.65;;;13.13;;
23185;SDS011;11761;51.324;4.590;2022-12-18T02:33:05;29.38;;;14.18;;
23185;SDS011;11761;51.324;4.590;2022-12-18T02:35:34;32.47;;;13.40;;
23185;SDS011;11761;51.324;4.590;2022-12-18T02:38:02;40.65;;;15.57;;
23185;SDS011;11761;51.324;4.590;2022-12-18T02:40:29;47.22;;;15.75;;
23185;SDS011;11761;51.324;4.590;2022-12-18T02:43:02;36.70;;;15.73;;
23185;SDS011;11761;51.324;4.590;2022-12-18T02:45:32;33.08;;;15.63;;
23185;SDS011;11761;51.324;4.590;2022-12-18T02:47:58;33.08;;;12.77;;
23185;SDS011;11761;51.324;4.590;2022-12-18T02:52:56;34.72;;;13.48;;
23185;SDS011;11761;51.324;4.590;2022-12-18T03:01:09;44.47;;;16.25;;
23185;SDS011;11761;51.324;4.590;2022-12-18T03:03:47;35.65;;;15.55;;
23185;SDS011;11761;51.324;4.590;2022-12-18T03:06:39;32.65;;;12.30;;
23185;SDS011;11761;51.324;4.590;2022-12-18T03:09:14;36.47;;;13.45;;
23185;SDS011;11761;51.324;4.590;2022-12-18T03:11:46;27.67;;;13.32;;
23185;SDS011;11761;51.324;4.590;2022-12-18T03:14:37;22.60;;;10.88;;
23185;SDS011;11761;51.324;4.590;2022-12-18T03:17:07;33.40;;;12.48;;
23185;SDS011;11761;51.324;4.590;2022-12-18T03:19:39;19.88;;;8.07;;
23185;SDS011;11761;51.324;4.590;2022-12-18T03:22:07;23.83;;;10.75;;
23185;SDS011;11761;51.324;4.590;2022-12-18T03:24:34;28.92;;;10.77;;
23185;SDS011;11761;51.324;4.590;2022-12-18T03:27:05;25.52;;;11.35;;
23185;SDS011;11761;51.324;4.590;2022-12-18T03:29:48;23.27;;;9.43;;
23185;SDS011;11761;51.324;4.590;2022-12-18T03:32:40;25.63;;;9.55;;
23185;SDS011;11761;51.324;4.590;2022-12-18T03:35:19;23.55;;;10.23;;
23185;SDS011;11761;51.324;4.590;2022-12-18T03:37:49;29.20;;;10.52;;
23185;SDS011;11761;51.324;4.590;2022-12-18T03:40:15;20.17;;;8.82;;
23185;SDS011;11761;51.324;4.590;2022-12-18T03:42:48;25.58;;;11.68;;
23185;SDS011;11761;51.324;4.590;2022-12-18T03:45:31;27.25;;;10.00;;
23185;SDS011;11761;51.324;4.590;2022-12-18T03:48:05;24.15;;;9.95;;
23185;SDS011;11761;51.324;4.590;2022-12-18T03:56:07;22.73;;;9.00;;
23185;SDS011;11761;51.324;4.590;2022-12-18T03:58:35;32.22;;;10.38;;
23185;SDS011;11761;51.324;4.590;2022-12-18T04:01:04;17.48;;;8.90;;
23185;SDS011;11761;51.324;4.590;2022-12-18T04:03:36;19.35;;;8.52;;
23185;SDS011;11761;51.324;4.590;2022-12-18T04:06:03;18.63;;;8.95;;
23185;SDS011;11761;51.324;4.590;2022-12-18T04:08:31;24.83;;;8.27;;
23185;SDS011;11761;51.324;4.590;2022-12-18T04:10:59;17.83;;;7.57;;
23185;SDS011;11761;51.324;4.590;2022-12-18T04:13:29;27.05;;;9.82;;
23185;SDS011;11761;51.324;4.590;2022-12-18T04:15:59;16.70;;;7.72;;
23185;SDS011;11761;51.324;4.590;2022-12-18T04:18:26;17.92;;;8.63;;
23185;SDS011;11761;51.324;4.590;2022-12-18T04:20:53;21.08;;;8.98;;
23185;SDS011;11761;51.324;4.590;2022-12-18T04:23:19;18.08;;;8.98;;
23185;SDS011;11761;51.324;4.590;2022-12-18T04:25:46;17.27;;;7.93;;
23185;SDS011;11761;51.324;4.590;2022-12-18T04:28:13;20.48;;;9.30;;
23185;SDS011;11761;51.324;4.590;2022-12-18T04:30:39;17.55;;;7.65;;
23185;SDS011;11761;51.324;4.590;2022-12-18T04:33:11;22.60;;;8.35;;
23185;SDS011;11761;51.324;4.590;2022-12-18T04:35:38;20.40;;;8.30;;
23185;SDS011;11761;51.324;4.590;2022-12-18T04:38:05;20.85;;;7.45;;
23185;SDS011;11761;51.324;4.590;2022-12-18T04:40:34;17.58;;;8.40;;
23185;SDS011;11761;51.324;4.590;2022-12-18T04:43:00;18.27;;;7.22;;
23185;SDS011;11761;51.324;4.590;2022-12-18T04:45:26;15.77;;;6.85;;
23185;SDS011;11761;51.324;4.590;2022-12-18T04:47:52;12.60;;;6.53;;
23185;SDS011;11761;51.324;4.590;2022-12-18T04:50:18;17.13;;;7.15;;
23185;SDS011;11761;51.324;4.590;2022-12-18T04:52:44;19.27;;;7.45;;
23185;SDS011;11761;51.324;4.590;2022-12-18T04:55:10;16.05;;;7.20;;
23185;SDS011;11761;51.324;4.590;2022-12-18T04:57:36;14.02;;;6.47;;
23185;SDS011;11761;51.324;4.590;2022-12-18T05:00:03;12.77;;;7.43;;
23185;SDS011;11761;51.324;4.590;2022-12-18T05:02:31;13.38;;;6.80;;
23185;SDS011;11761;51.324;4.590;2022-12-18T05:04:58;24.95;;;8.18;;
23185;SDS011;11761;51.324;4.590;2022-12-18T05:07:24;17.08;;;7.40;;
23185;SDS011;11761;51.324;4.590;2022-12-18T05:09:50;18.10;;;7.20;;
23185;SDS011;11761;51.324;4.590;2022-12-18T05:12:16;18.02;;;6.90;;
23185;SDS011;11761;51.324;4.590;2022-12-18T05:14:42;14.48;;;6.80;;
23185;SDS011;11761;51.324;4.590;2022-12-18T05:17:08;16.75;;;7.30;;
23185;SDS011;11761;51.324;4.590;2022-12-18T05:19:34;16.92;;;6.93;;
23185;SDS011;11761;51.324;4.590;2022-12-18T05:22:03;16.65;;;6.82;;
23185;SDS011;11761;51.324;4.590;2022-12-18T05:24:29;16.65;;;7.53;;
23185;SDS011;11761;51.324;4.590;2022-12-18T05:26:55;14.60;;;8.07;;
23185;SDS011;11761;51.324;4.590;2022-12-18T05:29:22;16.35;;;7.03;;
23185;SDS011;11761;51.324;4.590;2022-12-18T05:31:48;19.40;;;8.52;;
23185;SDS011;11761;51.324;4.590;2022-12-18T05:34:14;18.77;;;7.20;;
23185;SDS011;11761;51.324;4.590;2022-12-18T05:36:40;17.13;;;7.72;;
23185;SDS011;11761;51.324;4.590;2022-12-18T05:39:06;16.02;;;7.72;;
23185;SDS011;11761;51.324;4.590;2022-12-18T05:41:32;24.02;;;8.43;;
23185;SDS011;11761;51.324;4.590;2022-12-18T05:43:59;19.80;;;8.00;;
23185;SDS011;11761;51.324;4.590;2022-12-18T05:46:25;21.23;;;8.27;;
23185;SDS011;11761;51.324;4.590;2022-12-18T05:48:52;17.63;;;7.88;;
23185;SDS011;11761;51.324;4.590;2022-12-18T05:51:19;16.13;;;7.38;;
23185;SDS011;11761;51.324;4.590;2022-12-18T05:53:47;15.52;;;7.63;;
23185;SDS011;11761;51.324;4.590;2022-12-18T05:56:15;19.00;;;7.10;;
23185;SDS011;11761;51.324;4.590;2022-12-18T05:58:43;17.05;;;7.50;;
23185;SDS011;11761;51.324;4.590;2022-12-18T06:01:17;17.38;;;7.50;;
23185;SDS011;11761;51.324;4.590;2022-12-18T06:03:45;19.20;;;7.30;;
23185;SDS011;11761;51.324;4.590;2022-12-18T06:06:12;16.23;;;6.95;;
23185;SDS011;11761;51.324;4.590;2022-12-18T06:08:42;14.15;;;7.45;;
23185;SDS011;11761;51.324;4.590;2022-12-18T06:11:09;16.00;;;7.43;;
23185;SDS011;11761;51.324;4.590;2022-12-18T06:13:35;19.40;;;8.05;;
23185;SDS011;11761;51.324;4.590;2022-12-18T06:16:03;21.33;;;8.20;;
23185;SDS011;11761;51.324;4.590;2022-12-18T06:18:30;16.75;;;7.82;;
23185;SDS011;11761;51.324;4.590;2022-12-18T06:20:56;19.25;;;9.02;;
23185;SDS011;11761;51.324;4.590;2022-12-18T06:23:23;26.52;;;8.65;;
23185;SDS011;11761;51.324;4.590;2022-12-18T06:25:49;19.27;;;8.77;;
23185;SDS011;11761;51.324;4.590;2022-12-18T06:28:16;14.27;;;6.78;;
23185;SDS011;11761;51.324;4.590;2022-12-18T06:30:45;23.35;;;8.68;;
23185;SDS011;11761;51.324;4.590;2022-12-18T06:33:16;22.15;;;9.40;;
23185;SDS011;11761;51.324;4.590;2022-12-18T06:35:42;20.60;;;9.70;;
23185;SDS011;11761;51.324;4.590;2022-12-18T06:38:08;18.55;;;8.07;;
23185;SDS011;11761;51.324;4.590;2022-12-18T06:40:35;20.77;;;7.68;;
23185;SDS011;11761;51.324;4.590;2022-12-18T06:43:03;21.52;;;7.55;;
23185;SDS011;11761;51.324;4.590;2022-12-18T06:45:30;15.30;;;7.93;;
23185;SDS011;11761;51.324;4.590;2022-12-18T06:47:56;16.88;;;8.10;;
23185;SDS011;11761;51.324;4.590;2022-12-18T06:50:22;19.45;;;8.10;;
23185;SDS011;11761;51.324;4.590;2022-12-18T06:52:48;15.23;;;7.00;;
23185;SDS011;11761;51.324;4.590;2022-12-18T06:55:14;18.27;;;8.88;;
23185;SDS011;11761;51.324;4.590;2022-12-18T06:57:40;13.68;;;7.28;;
23185;SDS011;11761;51.324;4.590;2022-12-18T07:00:07;15.98;;;7.55;;
23185;SDS011;11761;51.324;4.590;2022-12-18T07:02:33;17.35;;;7.65;;
23185;SDS011;11761;51.324;4.590;2022-12-18T07:05:00;20.55;;;7.68;;
23185;SDS011;11761;51.324;4.590;2022-12-18T07:07:26;18.30;;;7.75;;
23185;SDS011;11761;51.324;4.590;2022-12-18T07:09:52;16.13;;;7.38;;
23185;SDS011;11761;51.324;4.590;2022-12-18T07:12:18;15.40;;;6.13;;
23185;SDS011;11761;51.324;4.590;2022-12-18T07:14:45;25.63;;;6.97;;
23185;SDS011;11761;51.324;4.590;2022-12-18T07:17:11;14.15;;;7.18;;
23185;SDS011;11761;51.324;4.590;2022-12-18T07:19:37;15.93;;;5.65;;
23185;SDS011;11761;51.324;4.590;2022-12-18T07:22:03;14.93;;;7.72;;
23185;SDS011;11761;51.324;4.590;2022-12-18T07:24:29;17.08;;;7.03;;
23185;SDS011;11761;51.324;4.590;2022-12-18T07:26:55;18.23;;;8.50;;
23185;SDS011;11761;51.324;4.590;2022-12-18T07:29:21;15.82;;;8.02;;
23185;SDS011;11761;51.324;4.590;2022-12-18T07:31:48;16.25;;;7.43;;
23185;SDS011;11761;51.324;4.590;2022-12-18T07:34:14;12.68;;;6.53;;
23185;SDS011;11761;51.324;4.590;2022-12-18T07:36:41;11.25;;;5.95;;
23185;SDS011;11761;51.324;4.590;2022-12-18T07:39:10;17.45;;;6.93;;
23185;SDS011;11761;51.324;4.590;2022-12-18T07:41:36;14.10;;;7.90;;
23185;SDS011;11761;51.324;4.590;2022-12-18T07:44:03;15.35;;;7.30;;
23185;SDS011;11761;51.324;4.590;2022-12-18T07:46:29;16.75;;;8.00;;
23185;SDS011;11761;51.324;4.590;2022-12-18T07:48:55;15.40;;;7.05;;
23185;SDS011;11761;51.324;4.590;2022-12-18T07:51:21;18.23;;;9.05;;
23185;SDS011;11761;51.324;4.590;2022-12-18T07:53:47;17.30;;;7.75;;
23185;SDS011;11761;51.324;4.590;2022-12-18T07:56:13;14.80;;;6.32;;
23185;SDS011;11761;51.324;4.590;2022-12-18T07:58:40;18.27;;;9.15;;
23185;SDS011;11761;51.324;4.590;2022-12-18T08:01:06;16.77;;;7.20;;
23185;SDS011;11761;51.324;4.590;2022-12-18T08:03:35;16.52;;;6.85;;
23185;SDS011;11761;51.324;4.590;2022-12-18T08:06:03;13.00;;;6.45;;
23185;SDS011;11761;51.324;4.590;2022-12-18T08:08:32;22.83;;;8.35;;
23185;SDS011;11761;51.324;4.590;2022-12-18T08:10:58;26.38;;;9.63;;
23185;SDS011;11761;51.324;4.590;2022-12-18T08:13:25;27.73;;;12.60;;
23185;SDS011;11761;51.324;4.590;2022-12-18T08:15:56;31.98;;;12.40;;
23185;SDS011;11761;51.324;4.590;2022-12-18T08:18:27;16.77;;;7.55;;
23185;SDS011;11761;51.324;4.590;2022-12-18T08:20:53;17.98;;;7.32;;
23185;SDS011;11761;51.324;4.590;2022-12-18T08:23:20;18.15;;;7.55;;
23185;SDS011;11761;51.324;4.590;2022-12-18T08:25:46;18.65;;;6.63;;
23185;SDS011;11761;51.324;4.590;2022-12-18T08:28:12;15.38;;;6.88;;
23185;SDS011;11761;51.324;4.590;2022-12-18T08:30:41;16.83;;;7.65;;
23185;SDS011;11761;51.324;4.590;2022-12-18T08:33:09;11.93;;;6.65;;
23185;SDS011;11761;51.324;4.590;2022-12-18T08:35:35;17.40;;;7.95;;
23185;SDS011;11761;51.324;4.590;2022-12-18T08:38:02;16.25;;;7.65;;
23185;SDS011;11761;51.324;4.590;2022-12-18T08:40:29;21.55;;;8.48;;
23185;SDS011;11761;51.324;4.590;2022-12-18T08:42:55;17.77;;;8.15;;
23185;SDS011;11761;51.324;4.590;2022-12-18T08:45:40;13.65;;;6.43;;
23185;SDS011;11761;51.324;4.590;2022-12-18T08:48:06;16.95;;;7.95;;
23185;SDS011;11761;51.324;4.590;2022-12-18T08:50:32;14.20;;;6.95;;
23185;SDS011;11761;51.324;4.590;2022-12-18T08:52:58;13.30;;;7.57;;
23185;SDS011;11761;51.324;4.590;2022-12-18T08:55:24;18.13;;;8.13;;
23185;SDS011;11761;51.324;4.590;2022-12-18T08:57:51;17.17;;;7.70;;
23185;SDS011;11761;51.324;4.590;2022-12-18T09:00:17;18.55;;;7.57;;
23185;SDS011;11761;51.324;4.590;2022-12-18T09:02:43;22.40;;;7.55;;
23185;SDS011;11761;51.324;4.590;2022-12-18T09:05:09;15.38;;;8.07;;
23185;SDS011;11761;51.324;4.590;2022-12-18T09:07:36;17.73;;;7.18;;
23185;SDS011;11761;51.324;4.590;2022-12-18T09:10:02;17.17;;;7.03;;
23185;SDS011;11761;51.324;4.590;2022-12-18T09:12:29;14.45;;;7.18;;
23185;SDS011;11761;51.324;4.590;2022-12-18T09:14:55;18.80;;;8.20;;
23185;SDS011;11761;51.324;4.590;2022-12-18T09:17:22;15.98;;;6.72;;
23185;SDS011;11761;51.324;4.590;2022-12-18T09:19:48;16.15;;;7.93;;
23185;SDS011;11761;51.324;4.590;2022-12-18T09:22:14;23.10;;;8.15;;
23185;SDS011;11761;51.324;4.590;2022-12-18T09:24:41;16.50;;;7.72;;
23185;SDS011;11761;51.324;4.590;2022-12-18T09:27:07;17.55;;;7.03;;
23185;SDS011;11761;51.324;4.590;2022-12-18T09:29:33;18.75;;;7.63;;
23185;SDS011;11761;51.324;4.590;2022-12-18T09:31:59;17.73;;;7.68;;
23185;SDS011;11761;51.324;4.590;2022-12-18T09:34:25;19.35;;;8.48;;
23185;SDS011;11761;51.324;4.590;2022-12-18T09:36:51;18.55;;;7.32;;
23185;SDS011;11761;51.324;4.590;2022-12-18T09:39:17;17.58;;;8.55;;
23185;SDS011;11761;51.324;4.590;2022-12-18T09:41:44;13.55;;;7.38;;
23185;SDS011;11761;51.324;4.590;2022-12-18T09:47:09;12.73;;;6.20;;
23185;SDS011;11761;51.324;4.590;2022-12-18T09:49:44;13.43;;;6.38;;
23185;SDS011;11761;51.324;4.590;2022-12-18T09:54:51;17.23;;;7.47;;
23185;SDS011;11761;51.324;4.590;2022-12-18T09:57:23;13.00;;;6.90;;
23185;SDS011;11761;51.324;4.590;2022-12-18T09:59:58;18.48;;;7.95;;
23185;SDS011;11761;51.324;4.590;2022-12-18T10:05:12;16.95;;;7.18;;
23185;SDS011;11761;51.324;4.590;2022-12-18T10:15:40;13.73;;;7.07;;
23185;SDS011;11761;51.324;4.590;2022-12-18T10:21:08;14.75;;;6.22;;
23185;SDS011;11761;51.324;4.590;2022-12-18T10:26:08;11.55;;;6.38;;
23185;SDS011;11761;51.324;4.590;2022-12-18T10:28:36;15.02;;;7.00;;
23185;SDS011;11761;51.324;4.590;2022-12-18T10:31:05;12.82;;;6.55;;
23185;SDS011;11761;51.324;4.590;2022-12-18T10:36:13;13.60;;;6.38;;
23185;SDS011;11761;51.324;4.590;2022-12-18T10:38:40;22.08;;;7.43;;
23185;SDS011;11761;51.324;4.590;2022-12-18T10:41:14;13.77;;;7.05;;
23185;SDS011;11761;51.324;4.590;2022-12-18T10:44:09;15.70;;;6.45;;
23185;SDS011;11761;51.324;4.590;2022-12-18T10:46:50;13.68;;;7.20;;
23185;SDS011;11761;51.324;4.590;2022-12-18T10:49:25;16.48;;;7.60;;
23185;SDS011;11761;51.324;4.590;2022-12-18T10:52:04;17.60;;;7.93;;
23185;SDS011;11761;51.324;4.590;2022-12-18T10:59:58;16.25;;;7.72;;
23185;SDS011;11761;51.324;4.590;2022-12-18T11:04:52;15.15;;;7.03;;
23185;SDS011;11761;51.324;4.590;2022-12-18T11:07:18;13.15;;;7.45;;
23185;SDS011;11761;51.324;4.590;2022-12-18T11:09:45;17.65;;;7.38;;
23185;SDS011;11761;51.324;4.590;2022-12-18T11:12:26;12.63;;;6.63;;
23185;SDS011;11761;51.324;4.590;2022-12-18T11:14:54;12.18;;;7.18;;
23185;SDS011;11761;51.324;4.590;2022-12-18T11:17:28;13.48;;;6.88;;
23185;SDS011;11761;51.324;4.590;2022-12-18T11:19:57;16.45;;;7.70;;
23185;SDS011;11761;51.324;4.590;2022-12-18T11:22:33;15.82;;;7.82;;
23185;SDS011;11761;51.324;4.590;2022-12-18T11:25:02;11.88;;;5.80;;
23185;SDS011;11761;51.324;4.590;2022-12-18T11:27:47;14.63;;;7.38;;
23185;SDS011;11761;51.324;4.590;2022-12-18T11:32:48;12.85;;;6.70;;
23185;SDS011;11761;51.324;4.590;2022-12-18T11:41:16;15.43;;;7.47;;
23185;SDS011;11761;51.324;4.590;2022-12-18T11:44:48;12.63;;;6.95;;
23185;SDS011;11761;51.324;4.590;2022-12-18T11:47:31;16.17;;;7.90;;
23185;SDS011;11761;51.324;4.590;2022-12-18T11:52:50;15.50;;;8.00;;
23185;SDS011;11761;51.324;4.590;2022-12-18T11:58:02;13.82;;;7.20;;
23185;SDS011;11761;51.324;4.590;2022-12-18T12:00:42;14.15;;;7.03;;
23185;SDS011;11761;51.324;4.590;2022-12-18T12:23:15;13.55;;;7.43;;
23185;SDS011;11761;51.324;4.590;2022-12-18T12:31:33;18.58;;;8.75;;
23185;SDS011;11761;51.324;4.590;2022-12-18T12:34:29;17.40;;;8.20;;
23185;SDS011;11761;51.324;4.590;2022-12-18T12:39:40;14.30;;;7.35;;
23185;SDS011;11761;51.324;4.590;2022-12-18T12:42:15;19.20;;;8.32;;
23185;SDS011;11761;51.324;4.590;2022-12-18T12:45:32;14.60;;;7.78;;
23185;SDS011;11761;51.324;4.590;2022-12-18T12:48:02;15.35;;;7.70;;
23185;SDS011;11761;51.324;4.590;2022-12-18T12:50:34;19.23;;;8.93;;
23185;SDS011;11761;51.324;4.590;2022-12-18T12:53:05;13.98;;;7.68;;
23185;SDS011;11761;51.324;4.590;2022-12-18T12:55:34;17.37;;;8.70;;
23185;SDS011;11761;51.324;4.590;2022-12-18T13:00:39;15.75;;;7.97;;
23185;SDS011;11761;51.324;4.590;2022-12-18T13:06:05;15.25;;;7.53;;
23185;SDS011;11761;51.324;4.590;2022-12-18T13:08:58;17.77;;;8.60;;
23185;SDS011;11761;51.324;4.590;2022-12-18T13:11:30;15.15;;;7.57;;
23185;SDS011;11761;51.324;4.590;2022-12-18T13:14:20;14.70;;;7.80;;
23185;SDS011;11761;51.324;4.590;2022-12-18T13:20:19;16.45;;;8.10;;
23185;SDS011;11761;51.324;4.590;2022-12-18T13:22:46;13.45;;;7.43;;
23185;SDS011;11761;51.324;4.590;2022-12-18T13:31:10;15.65;;;7.85;;
23185;SDS011;11761;51.324;4.590;2022-12-18T13:36:25;17.30;;;8.05;;
23185;SDS011;11761;51.324;4.590;2022-12-18T13:41:47;16.60;;;8.15;;
23185;SDS011;11761;51.324;4.590;2022-12-18T13:47:38;14.55;;;7.82;;
23185;SDS011;11761;51.324;4.590;2022-12-18T13:50:13;17.40;;;7.57;;
23185;SDS011;11761;51.324;4.590;2022-12-18T13:52:48;16.20;;;7.93;;
23185;SDS011;11761;51.324;4.590;2022-12-18T13:55:16;19.35;;;8.93;;
23185;SDS011;11761;51.324;4.590;2022-12-18T13:57:45;18.60;;;9.23;;
23185;SDS011;11761;51.324;4.590;2022-12-18T14:02:57;19.13;;;10.40;;
23185;SDS011;11761;51.324;4.590;2022-12-18T14:05:34;22.60;;;9.65;;
23185;SDS011;11761;51.324;4.590;2022-12-18T14:08:07;20.92;;;10.45;;
23185;SDS011;11761;51.324;4.590;2022-12-18T14:10:39;21.95;;;11.18;;
23185;SDS011;11761;51.324;4.590;2022-12-18T14:13:08;21.52;;;10.27;;
23185;SDS011;11761;51.324;4.590;2022-12-18T14:15:43;18.85;;;10.00;;
23185;SDS011;11761;51.324;4.590;2022-12-18T14:18:22;19.25;;;10.30;;
23185;SDS011;11761;51.324;4.590;2022-12-18T14:21:14;24.58;;;10.52;;
23185;SDS011;11761;51.324;4.590;2022-12-18T14:24:35;20.85;;;10.15;;
23185;SDS011;11761;51.324;4.590;2022-12-18T14:29:18;20.45;;;9.68;;
23185;SDS011;11761;51.324;4.590;2022-12-18T14:34:36;21.58;;;12.05;;
23185;SDS011;11761;51.324;4.590;2022-12-18T14:37:02;32.60;;;15.95;;
23185;SDS011;11761;51.324;4.590;2022-12-18T14:39:29;25.55;;;13.93;;
23185;SDS011;11761;51.324;4.590;2022-12-18T14:41:55;35.45;;;16.55;;
23185;SDS011;11761;51.324;4.590;2022-12-18T14:44:21;26.67;;;13.77;;
23185;SDS011;11761;51.324;4.590;2022-12-18T14:46:48;26.98;;;13.60;;
23185;SDS011;11761;51.324;4.590;2022-12-18T14:51:42;22.55;;;11.93;;
23185;SDS011;11761;51.324;4.590;2022-12-18T14:54:18;25.45;;;12.82;;
23185;SDS011;11761;51.324;4.590;2022-12-18T14:56:46;21.98;;;11.95;;
23185;SDS011;11761;51.324;4.590;2022-12-18T14:59:15;24.77;;;11.98;;
23185;SDS011;11761;51.324;4.590;2022-12-18T15:02:34;22.83;;;10.60;;
23185;SDS011;11761;51.324;4.590;2022-12-18T15:04:35;19.63;;;10.43;;
23185;SDS011;11761;51.324;4.590;2022-12-18T15:07:13;19.60;;;10.93;;
23185;SDS011;11761;51.324;4.590;2022-12-18T15:09:42;24.85;;;11.15;;
23185;SDS011;11761;51.324;4.590;2022-12-18T15:12:27;29.83;;;14.18;;
23185;SDS011;11761;51.324;4.590;2022-12-18T15:15:00;21.05;;;11.55;;
23185;SDS011;11761;51.324;4.590;2022-12-18T15:17:27;31.95;;;16.45;;
23185;SDS011;11761;51.324;4.590;2022-12-18T15:19:58;23.35;;;10.27;;
23185;SDS011;11761;51.324;4.590;2022-12-18T15:22:35;23.65;;;12.77;;
23185;SDS011;11761;51.324;4.590;2022-12-18T15:25:03;22.63;;;11.73;;
23185;SDS011;11761;51.324;4.590;2022-12-18T15:27:48;25.45;;;12.70;;
23185;SDS011;11761;51.324;4.590;2022-12-18T15:32:43;22.23;;;11.18;;
23185;SDS011;11761;51.324;4.590;2022-12-18T15:37:36;25.42;;;12.10;;
23185;SDS011;11761;51.324;4.590;2022-12-18T15:40:03;24.27;;;13.52;;
23185;SDS011;11761;51.324;4.590;2022-12-18T15:42:30;23.27;;;11.85;;
23185;SDS011;11761;51.324;4.590;2022-12-18T15:45:14;28.85;;;12.18;;
23185;SDS011;11761;51.324;4.590;2022-12-18T15:47:41;23.83;;;11.95;;
23185;SDS011;11761;51.324;4.590;2022-12-18T15:50:07;24.10;;;12.52;;
23185;SDS011;11761;51.324;4.590;2022-12-18T15:52:39;22.58;;;11.98;;
23185;SDS011;11761;51.324;4.590;2022-12-18T15:57:58;25.20;;;12.35;;
23185;SDS011;11761;51.324;4.590;2022-12-18T16:00:24;22.48;;;11.40;;
23185;SDS011;11761;51.324;4.590;2022-12-18T16:02:51;25.63;;;11.95;;
23185;SDS011;11761;51.324;4.590;2022-12-18T16:05:18;22.27;;;11.32;;
23185;SDS011;11761;51.324;4.590;2022-12-18T16:07:46;26.23;;;13.52;;
23185;SDS011;11761;51.324;4.590;2022-12-18T16:10:12;24.08;;;11.90;;
23185;SDS011;11761;51.324;4.590;2022-12-18T16:12:39;24.17;;;11.93;;
23185;SDS011;11761;51.324;4.590;2022-12-18T16:15:06;36.35;;;18.35;;
23185;SDS011;11761;51.324;4.590;2022-12-18T16:17:32;32.65;;;15.07;;
23185;SDS011;11761;51.324;4.590;2022-12-18T16:19:59;37.03;;;18.98;;
23185;SDS011;11761;51.324;4.590;2022-12-18T16:22:26;38.10;;;20.13;;
23185;SDS011;11761;51.324;4.590;2022-12-18T16:24:54;24.63;;;12.18;;
23185;SDS011;11761;51.324;4.590;2022-12-18T16:27:21;21.42;;;10.13;;
23185;SDS011;11761;51.324;4.590;2022-12-18T16:29:48;24.90;;;11.85;;
23185;SDS011;11761;51.324;4.590;2022-12-18T16:32:16;24.83;;;12.23;;
23185;SDS011;11761;51.324;4.590;2022-12-18T16:34:44;23.80;;;11.27;;
23185;SDS011;11761;51.324;4.590;2022-12-18T16:37:11;26.83;;;12.45;;
23185;SDS011;11761;51.324;4.590;2022-12-18T16:39:39;29.95;;;12.13;;
23185;SDS011;11761;51.324;4.590;2022-12-18T16:42:10;23.92;;;10.88;;
23185;SDS011;11761;51.324;4.590;2022-12-18T16:44:40;23.73;;;10.30;;
23185;SDS011;11761;51.324;4.590;2022-12-18T16:47:06;23.85;;;12.02;;
23185;SDS011;11761;51.324;4.590;2022-12-18T16:49:32;24.35;;;11.73;;
23185;SDS011;11761;51.324;4.590;2022-12-18T16:51:59;24.38;;;11.57;;
23185;SDS011;11761;51.324;4.590;2022-12-18T16:54:26;24.30;;;11.73;;
23185;SDS011;11761;51.324;4.590;2022-12-18T16:56:55;31.10;;;14.98;;
23185;SDS011;11761;51.324;4.590;2022-12-18T16:59:22;28.52;;;12.23;;
23185;SDS011;11761;51.324;4.590;2022-12-18T17:01:48;33.47;;;18.27;;
23185;SDS011;11761;51.324;4.590;2022-12-18T17:04:14;22.42;;;11.07;;
23185;SDS011;11761;51.324;4.590;2022-12-18T17:06:42;24.95;;;12.43;;
23185;SDS011;11761;51.324;4.590;2022-12-18T17:09:13;27.98;;;12.60;;